Time;durP1;ratioP1;P1;durP2;ratioP2;P2;SDS_P1;SDS_P2;PMS_P1;PMS_P2;Temp;Humidity;BMP_temperature;BMP_pressure;BME280_temperature;BME280_humidity;BME280_pressure;Samples;Min_cycle;Max_cycle;Signal;HPM_P1;HPM_P2
2023/04/11 00:02:50;;;;;;;24.67;12.10;;;;;;;;;;12989863;19;20098;-66
2023/04/11 00:07:09;;;;;;;35.90;16.27;;;;;;;;;;12989003;19;20011;-66
2023/04/11 00:11:27;;;;;;;;;;;;;;;;;;12990407;19;20018;-66
2023/04/11 00:15:44;;;;;;;32.28;16.00;;;;;;;;;;12987761;19;19910;-65
2023/04/11 00:20:06;;;;;;;24.50;13.35;;;;;;;;;;12990100;19;20029;-66
2023/04/11 00:24:25;;;;;;;34.42;16.17;;;;;;;;;;12988927;19;20023;-66
2023/04/11 00:28:43;;;;;;;32.50;15.15;;;;;;;;;;12988311;19;20018;-66
2023/04/11 00:33:00;;;;;;;24.20;13.52;;;;;;;;;;12987908;19;20351;-66
2023/04/11 00:37:20;;;;;;;32.72;15.93;;;;;;;;;;12986363;19;20023;-66
2023/04/11 00:41:38;;;;;;;25.92;13.43;;;;;;;;;;12987893;19;20498;-66
2023/04/11 00:45:56;;;;;;;25.60;13.32;;;;;;;;;;12986621;19;20018;-66
2023/04/11 00:50:14;;;;;;;;;;;;;;;;;;12985721;19;20010;-65
2023/04/11 00:54:33;;;;;;;68.20;22.58;;;;;;;;;;12987135;19;19926;-66
2023/04/11 00:58:51;;;;;;;56.47;19.67;;;;;;;;;;12986743;19;20496;-65
2023/04/11 01:03:08;;;;;;;56.83;21.17;;;;;;;;;;12987658;19;20022;-65
2023/04/11 01:07:28;;;;;;;107.90;32.45;;;;;;;;;;12986006;19;20014;-65
2023/04/11 01:11:48;;;;;;;122.20;39.38;;;;;;;;;;12984915;19;20107;-66
2023/04/11 01:16:07;;;;;;;100.28;35.00;;;;;;;;;;12984484;19;20086;-66
2023/04/11 01:20:25;;;;;;;75.68;26.95;;;;;;;;;;12985559;19;20555;-66
2023/04/11 01:24:43;;;;;;;23.83;11.73;;;;;;;;;;12985412;19;20006;-66
2023/04/11 01:29:01;;;;;;;20.25;10.45;;;;;;;;;;12983041;19;20018;-69
2023/04/11 01:33:19;;;;;;;21.10;11.30;;;;;;;;;;12985017;19;20026;-66
2023/04/11 01:37:38;;;;;;;27.50;11.77;;;;;;;;;;12982456;19;20027;-66
2023/04/11 01:41:57;;;;;;;27.38;11.82;;;;;;;;;;12981249;19;20242;-66
2023/04/11 01:46:15;;;;;;;17.33;10.07;;;;;;;;;;12982730;19;20027;-67
2023/04/11 01:50:33;;;;;;;;;;;;;;;;;;12982502;19;20018;-66
2023/04/11 01:54:51;;;;;;;53.03;18.45;;;;;;;;;;12983517;19;19914;-66
2023/04/11 01:59:08;;;;;;;20.88;10.25;;;;;;;;;;12982386;19;20022;-67
2023/04/11 02:03:25;;;;;;;15.23;9.60;;;;;;;;;;12979711;19;20010;-66
2023/04/11 02:07:43;;;;;;;13.75;8.52;;;;;;;;;;12982086;19;20042;-66
2023/04/11 02:12:01;;;;;;;14.65;7.97;;;;;;;;;;12981404;19;20010;-70
2023/04/11 02:16:19;;;;;;;;;;;;;;;;;;12983009;19;20351;-66
2023/04/11 02:20:39;;;;;;;11.68;8.02;;;;;;;;;;12981878;19;20399;-66
2023/04/11 02:24:57;;;;;;;21.38;9.68;;;;;;;;;;12982198;19;20026;-66
2023/04/11 02:29:14;;;;;;;20.75;10.00;;;;;;;;;;12981199;19;20023;-66
2023/04/11 02:33:32;;;;;;;64.00;20.20;;;;;;;;;;12981591;19;20031;-66
2023/04/11 02:37:50;;;;;;;51.90;16.83;;;;;;;;;;12981302;19;20015;-66
2023/04/11 02:42:07;;;;;;;25.92;11.65;;;;;;;;;;12992059;19;20028;-67
2023/04/11 02:46:25;;;;;;;36.90;13.32;;;;;;;;;;12992439;19;20014;-66
2023/04/11 02:50:43;;;;;;;69.80;21.70;;;;;;;;;;12993210;19;20014;-66
2023/04/11 02:55:00;;;;;;;111.72;34.65;;;;;;;;;;12992808;19;20003;-66
2023/04/11 02:59:18;;;;;;;29.13;11.90;;;;;;;;;;12992390;19;20011;-66
2023/04/11 03:03:40;;;;;;;14.63;8.40;;;;;;;;;;12992008;19;20006;-66
2023/04/11 03:07:57;;;;;;;60.25;20.38;;;;;;;;;;12991958;19;20010;-66
2023/04/11 03:12:15;;;;;;;38.80;14.38;;;;;;;;;;12991979;19;20492;-67
2023/04/11 03:16:33;;;;;;;90.72;29.35;;;;;;;;;;12992154;19;20025;-66
2023/04/11 03:20:51;;;;;;;88.30;27.67;;;;;;;;;;12991447;19;20011;-66
2023/04/11 03:25:10;;;;;;;45.42;16.25;;;;;;;;;;12990434;19;20017;-66
2023/04/11 03:29:27;;;;;;;14.05;7.68;;;;;;;;;;12991304;19;20018;-65
2023/04/11 03:33:45;;;;;;;12.32;7.70;;;;;;;;;;12991267;19;20018;-65
2023/04/11 03:38:03;;;;;;;;;;;;;;;;;;12990966;19;20015;-66
2023/04/11 03:42:21;;;;;;;27.42;11.23;;;;;;;;;;12989767;19;19931;-66
2023/04/11 03:46:38;;;;;;;16.35;8.23;;;;;;;;;;12989457;19;20036;-65
2023/04/11 03:50:56;;;;;;;15.18;8.57;;;;;;;;;;12990268;19;20018;-66
2023/04/11 03:55:14;;;;;;;17.17;8.02;;;;;;;;;;12989946;19;20717;-66
2023/04/11 03:59:32;;;;;;;60.70;22.58;;;;;;;;;;12989578;19;20024;-66
2023/04/11 04:03:49;;;;;;;39.08;15.00;;;;;;;;;;12989361;19;20031;-66
2023/04/11 04:08:07;;;;;;;30.10;11.90;;;;;;;;;;12988396;19;20011;-66
2023/04/11 04:12:25;;;;;;;58.70;22.00;;;;;;;;;;12988958;19;20363;-66
2023/04/11 04:16:42;;;;;;;13.05;7.72;;;;;;;;;;12988634;19;20026;-65
2023/04/11 04:21:00;;;;;;;11.45;6.30;;;;;;;;;;12987413;19;20003;-65
2023/04/11 04:25:19;;;;;;;12.90;7.13;;;;;;;;;;12988011;19;20014;-66
2023/04/11 04:29:37;;;;;;;24.25;11.40;;;;;;;;;;12988167;19;20362;-65
2023/04/11 04:33:57;;;;;;;29.63;13.65;;;;;;;;;;12987925;19;20006;-65
2023/04/11 04:38:16;;;;;;;32.55;14.50;;;;;;;;;;12987090;19;20018;-66
2023/04/11 04:42:35;;;;;;;30.98;13.23;;;;;;;;;;12987375;19;20022;-66
2023/04/11 04:46:54;;;;;;;17.98;6.72;;;;;;;;;;12986859;19;20834;-66
2023/04/11 04:51:12;;;;;;;22.33;8.23;;;;;;;;;;12986974;19;20022;-66
2023/04/11 04:55:29;;;;;;;17.45;8.18;;;;;;;;;;12986832;19;20007;-66
2023/04/11 04:59:47;;;;;;;13.63;7.68;;;;;;;;;;12986584;19;20351;-66
2023/04/11 05:04:04;;;;;;;14.40;8.68;;;;;;;;;;12983989;19;20027;-66
2023/04/11 05:08:22;;;;;;;;;;;;;;;;;;12986703;19;20027;-66
2023/04/11 05:12:40;;;;;;;23.10;9.60;;;;;;;;;;12986317;19;20279;-66
2023/04/11 05:16:58;;;;;;;24.35;10.20;;;;;;;;;;12985433;19;20015;-66
2023/04/11 05:21:16;;;;;;;29.35;13.50;;;;;;;;;;12985333;19;20521;-66
2023/04/11 05:25:33;;;;;;;25.98;12.27;;;;;;;;;;12985154;19;20010;-65
2023/04/11 05:29:53;;;;;;;19.40;9.38;;;;;;;;;;12984687;19;20014;-65
2023/04/11 05:34:10;;;;;;;32.75;15.50;;;;;;;;;;12983717;19;20011;-65
2023/04/11 05:38:28;;;;;;;20.02;10.35;;;;;;;;;;12983954;19;20017;-65
2023/04/11 05:42:46;;;;;;;18.00;11.27;;;;;;;;;;12983876;19;20028;-65
2023/04/11 05:47:03;;;;;;;17.90;8.98;;;;;;;;;;12982699;19;20436;-66
2023/04/11 05:51:21;;;;;;;13.40;7.45;;;;;;;;;;12982861;19;20468;-65
2023/04/11 05:55:39;;;;;;;20.45;11.75;;;;;;;;;;12983072;19;20786;-65
2023/04/11 05:59:56;;;;;;;9.68;5.18;;;;;;;;;;12983348;19;20010;-65
2023/04/11 06:04:14;;;;;;;15.75;7.15;;;;;;;;;;12981963;19;20027;-65
2023/04/11 06:08:33;;;;;;;12.35;7.03;;;;;;;;;;12982822;19;20488;-65
2023/04/11 06:12:51;;;;;;;14.65;8.35;;;;;;;;;;12982800;19;20052;-65
2023/04/11 06:17:09;;;;;;;14.88;9.52;;;;;;;;;;12982609;19;20017;-66
2023/04/11 06:21:27;;;;;;;69.70;29.35;;;;;;;;;;12982495;19;20021;-65
2023/04/11 06:25:45;;;;;;;94.10;35.65;;;;;;;;;;12982334;19;20014;-65
2023/04/11 06:30:03;;;;;;;83.75;30.85;;;;;;;;;;12982072;19;20029;-65
2023/04/11 06:34:21;;;;;;;21.58;8.90;;;;;;;;;;12981885;19;20394;-65
2023/04/11 06:38:39;;;;;;;11.52;5.10;;;;;;;;;;12980973;19;20383;-65
2023/04/11 06:42:58;;;;;;;17.67;5.85;;;;;;;;;;12980024;19;20011;-65
2023/04/11 06:47:16;;;;;;;20.92;7.60;;;;;;;;;;12979129;19;20022;-65
2023/04/11 06:51:35;;;;;;;11.57;5.70;;;;;;;;;;12980758;19;20045;-65
2023/04/11 06:55:52;;;;;;;13.07;6.55;;;;;;;;;;12980343;19;20079;-65
2023/04/11 07:00:12;;;;;;;13.60;6.25;;;;;;;;;;12980082;19;20014;-65
2023/04/11 07:04:29;;;;;;;11.93;7.18;;;;;;;;;;12979683;19;20445;-66
2023/04/11 07:08:47;;;;;;;8.02;5.35;;;;;;;;;;12980276;19;20351;-66
2023/04/11 07:13:05;;;;;;;10.18;5.35;;;;;;;;;;12979894;19;20470;-66
2023/04/11 07:17:23;;;;;;;10.32;4.63;;;;;;;;;;12980743;19;20011;-66
2023/04/11 07:21:41;;;;;;;6.45;4.50;;;;;;;;;;12979645;19;20006;-66
2023/04/11 07:25:59;;;;;;;8.70;4.18;;;;;;;;;;12985639;19;20019;-66
2023/04/11 07:30:17;;;;;;;7.40;3.35;;;;;;;;;;12991751;19;20014;-65
2023/04/11 07:34:35;;;;;;;6.40;3.60;;;;;;;;;;12991586;19;20014;-65
2023/04/11 07:38:52;;;;;;;7.80;4.80;;;;;;;;;;12988906;19;20034;-65
2023/04/11 07:43:10;;;;;;;;;;;;;;;;;;12989590;19;20358;-66
2023/04/11 07:47:28;;;;;;;6.47;2.88;;;;;;;;;;12989499;19;20349;-65
2023/04/11 07:51:46;;;;;;;;;;;;;;;;;;12990857;19;20461;-65
2023/04/11 07:56:04;;;;;;;4.25;2.80;;;;;;;;;;12989833;19;19918;-65
2023/04/11 08:00:22;;;;;;;;;;;;;;;;;;12990417;19;20763;-65
2023/04/11 08:04:40;;;;;;;5.75;2.60;;;;;;;;;;12988770;19;19944;-66
2023/04/11 08:08:59;;;;;;;3.38;2.50;;;;;;;;;;12988781;19;20018;-66
2023/04/11 08:13:17;;;;;;;4.55;2.75;;;;;;;;;;12988466;19;20019;-66
2023/04/11 08:17:37;;;;;;;3.60;2.20;;;;;;;;;;12989064;19;20007;-66
2023/04/11 08:21:55;;;;;;;6.07;2.58;;;;;;;;;;12987869;19;20018;-66
2023/04/11 08:26:12;;;;;;;2.42;1.95;;;;;;;;;;12988101;19;20006;-66
2023/04/11 08:30:31;;;;;;;3.35;1.90;;;;;;;;;;12988245;19;20017;-66
2023/04/11 08:34:48;;;;;;;3.28;1.90;;;;;;;;;;12988023;19;20011;-66
2023/04/11 08:39:06;;;;;;;;;;;;;;;;;;12985521;19;20488;-67
2023/04/11 08:43:24;;;;;;;6.47;1.92;;;;;;;;;;12987158;19;19922;-67
2023/04/11 08:47:42;;;;;;;3.75;2.00;;;;;;;;;;12987089;19;20010;-66
2023/04/11 08:52:02;;;;;;;2.28;1.60;;;;;;;;;;12986407;19;20556;-67
2023/04/11 08:56:20;;;;;;;2.80;1.58;;;;;;;;;;12985318;19;20544;-67
2023/04/11 09:00:38;;;;;;;4.13;2.00;;;;;;;;;;12986922;19;20010;-66
2023/04/11 09:04:56;;;;;;;2.00;1.70;;;;;;;;;;12986493;19;20010;-66
2023/04/11 09:09:28;;;;;;;2.55;1.38;;;;;;;;;;12986292;19;20014;-67
2023/04/11 09:14:05;;;;;;;2.38;1.50;;;;;;;;;;12986273;19;20505;-66
2023/04/11 09:18:37;;;;;;;4.90;3.10;;;;;;;;;;12986021;19;20396;-66
2023/04/11 09:22:57;;;;;;;3.35;1.88;;;;;;;;;;12985271;19;20017;-66
2023/04/11 09:27:19;;;;;;;2.65;1.80;;;;;;;;;;12978695;19;20022;-66
2023/04/11 09:31:44;;;;;;;4.45;2.38;;;;;;;;;;12974503;19;20497;-67
2023/04/11 09:36:18;;;;;;;3.75;2.03;;;;;;;;;;12984051;19;20015;-67
2023/04/11 09:40:42;;;;;;;2.60;1.55;;;;;;;;;;12984534;19;20022;-66
2023/04/11 09:45:01;;;;;;;3.17;2.03;;;;;;;;;;12982766;19;20015;-66
2023/04/11 09:49:20;;;;;;;4.13;1.98;;;;;;;;;;12982578;19;20010;-67
2023/04/11 09:53:37;;;;;;;;;;;;;;;;;;12982532;19;20041;-66
2023/04/11 09:57:55;;;;;;;1.90;1.40;;;;;;;;;;12982098;19;19922;-67
2023/04/11 10:02:13;;;;;;;;;;;;;;;;;;12983615;19;20014;-67
2023/04/11 10:06:40;;;;;;;2.15;1.55;;;;;;;;;;12982771;19;19918;-67
2023/04/11 10:11:09;;;;;;;1.93;1.40;;;;;;;;;;12981164;19;20022;-66
2023/04/11 10:15:27;;;;;;;2.35;1.50;;;;;;;;;;12981845;19;20010;-66
2023/04/11 10:19:46;;;;;;;1.88;1.35;;;;;;;;;;12983291;19;20476;-67
2023/04/11 10:24:10;;;;;;;2.40;1.52;;;;;;;;;;12981572;19;20010;-67
2023/04/11 10:28:38;;;;;;;2.90;1.75;;;;;;;;;;12981943;19;20011;-67
2023/04/11 10:33:25;;;;;;;1.88;1.35;;;;;;;;;;12981952;19;20029;-67
2023/04/11 10:37:43;;;;;;;2.87;2.17;;;;;;;;;;12981381;19;20019;-67
2023/04/11 10:42:30;;;;;;;;;;;;;;;;;;12982148;19;20015;-69
2023/04/11 10:46:53;;;;;;;2.92;2.08;;;;;;;;;;12980245;19;19921;-67
2023/04/11 10:51:24;;;;;;;2.10;1.45;;;;;;;;;;12979830;19;20018;-67
2023/04/11 10:55:48;;;;;;;3.35;1.48;;;;;;;;;;12980918;19;20023;-66
2023/04/11 11:00:12;;;;;;;5.13;1.58;;;;;;;;;;12982813;19;20017;-67
2023/04/11 11:04:36;;;;;;;3.05;2.05;;;;;;;;;;12991848;19;20014;-66
2023/04/11 11:08:55;;;;;;;3.45;2.17;;;;;;;;;;12992554;19;20492;-66
2023/04/11 11:13:15;;;;;;;3.22;1.70;;;;;;;;;;12991528;19;20368;-67
2023/04/11 11:17:34;;;;;;;2.08;1.60;;;;;;;;;;12992124;19;20376;-66
2023/04/11 11:21:52;;;;;;;80.47;29.55;;;;;;;;;;12989939;19;20010;-66
2023/04/11 11:26:09;;;;;;;23.00;11.00;;;;;;;;;;12987878;19;20014;-66
2023/04/11 11:30:27;;;;;;;;;;;;;;;;;;12991931;19;20010;-66
2023/04/11 11:34:45;;;;;;;3.20;2.10;;;;;;;;;;12981728;19;19930;-66
2023/04/11 11:39:04;;;;;;;4.95;2.55;;;;;;;;;;12984965;19;20018;-67
2023/04/11 11:43:26;;;;;;;4.10;2.10;;;;;;;;;;12988060;19;20018;-66
2023/04/11 11:47:46;;;;;;;2.15;1.58;;;;;;;;;;12990369;19;20493;-66
2023/04/11 11:52:06;;;;;;;2.83;1.90;;;;;;;;;;12990447;19;20460;-67
2023/04/11 11:56:23;;;;;;;8.20;4.97;;;;;;;;;;12990123;19;20081;-66
2023/04/11 12:00:41;;;;;;;3.25;2.50;;;;;;;;;;12980934;19;20027;-68
2023/04/11 12:05:00;;;;;;;;;;;;;;;;;;12988103;19;20007;-69
2023/04/11 12:09:18;;;;;;;10.82;5.32;;;;;;;;;;12980291;19;19954;-69
2023/04/11 12:13:35;;;;;;;;;;;;;;;;;;12988639;19;20010;-69
2023/04/11 12:17:56;;;;;;;5.03;2.83;;;;;;;;;;12987475;19;19918;-69
2023/04/11 12:22:14;;;;;;;3.05;2.15;;;;;;;;;;12985889;19;20031;-69
2023/04/11 12:26:31;;;;;;;;;;;;;;;;;;12986021;19;20023;-69
2023/04/11 12:30:49;;;;;;;15.45;13.88;;;;;;;;;;12988165;19;19919;-68
2023/04/11 12:35:07;;;;;;;10.25;5.00;;;;;;;;;;12987047;19;20014;-70
2023/04/11 12:39:25;;;;;;;4.80;2.90;;;;;;;;;;12986257;19;20019;-69
2023/04/11 12:43:43;;;;;;;19.50;6.60;;;;;;;;;;12986452;19;20010;-69
2023/04/11 12:48:01;;;;;;;11.77;6.32;;;;;;;;;;12987388;19;20473;-69
2023/04/11 13:03:03;;;;;;;3.58;2.60;;;;;;;;;;12950666;19;20019;-68
2023/04/11 13:07:21;;;;;;;46.85;27.33;;;;;;;;;;12968709;19;20029;-69
2023/04/11 13:11:39;;;;;;;;;;;;;;;;;;12974580;19;20019;-69
2023/04/11 13:15:56;;;;;;;6.15;3.40;;;;;;;;;;12967958;19;19919;-68
2023/04/11 13:20:14;;;;;;;59.65;53.22;;;;;;;;;;12973371;19;20018;-69
2023/04/11 13:24:32;;;;;;;;;;;;;;;;;;12984056;19;20022;-70
2023/04/11 13:28:50;;;;;;;6.93;2.95;;;;;;;;;;12983483;19;19926;-68
2023/04/11 13:33:07;;;;;;;6.18;3.65;;;;;;;;;;12984143;19;20014;-68
2023/04/11 13:37:25;;;;;;;9.32;5.72;;;;;;;;;;12983417;19;20010;-68
2023/04/11 13:41:43;;;;;;;6.47;3.47;;;;;;;;;;12981768;19;20022;-68
2023/04/11 13:46:01;;;;;;;7.05;4.60;;;;;;;;;;12982627;19;20010;-68
2023/04/11 13:50:18;;;;;;;5.88;3.60;;;;;;;;;;12983425;19;20015;-68
2023/04/11 13:54:37;;;;;;;4.80;3.30;;;;;;;;;;12983868;19;20014;-68
2023/04/11 13:58:55;;;;;;;6.57;3.40;;;;;;;;;;12983664;19;20014;-68
2023/04/11 14:03:13;;;;;;;5.70;3.15;;;;;;;;;;12981667;19;20361;-68
2023/04/11 14:07:31;;;;;;;4.60;2.72;;;;;;;;;;12982002;19;20015;-68
2023/04/11 14:11:49;;;;;;;14.88;4.45;;;;;;;;;;12983407;19;20027;-68
2023/04/11 14:16:06;;;;;;;7.65;5.28;;;;;;;;;;12982085;19;20018;-68
2023/04/11 14:20:26;;;;;;;6.90;3.13;;;;;;;;;;12983027;19;20018;-68
2023/04/11 14:24:43;;;;;;;7.80;4.07;;;;;;;;;;12980355;19;20375;-68
2023/04/11 14:29:01;;;;;;;4.97;3.08;;;;;;;;;;12983247;19;20018;-68
2023/04/11 14:33:19;;;;;;;5.07;3.03;;;;;;;;;;12981407;19;20481;-68
2023/04/11 14:37:37;;;;;;;4.22;2.65;;;;;;;;;;12979979;19;20018;-68
2023/04/11 14:41:55;;;;;;;;;;;;;;;;;;12981994;19;20014;-68
2023/04/11 14:46:13;;;;;;;6.18;2.97;;;;;;;;;;12980509;19;19922;-68
2023/04/11 14:50:31;;;;;;;5.47;3.50;;;;;;;;;;12980663;19;20484;-68
2023/04/11 14:54:49;;;;;;;6.75;3.58;;;;;;;;;;12980843;19;20015;-68
2023/04/11 14:59:10;;;;;;;8.75;5.28;;;;;;;;;;12980192;19;20018;-68
2023/04/11 15:03:27;;;;;;;6.75;3.92;;;;;;;;;;12980573;19;20614;-68
2023/04/11 15:07:48;;;;;;;9.45;5.65;;;;;;;;;;12979755;19;20010;-68
2023/04/11 15:12:06;;;;;;;6.38;3.92;;;;;;;;;;12979722;19;20006;-68
2023/04/11 15:16:24;;;;;;;7.78;4.88;;;;;;;;;;12979701;19;20334;-68
2023/04/11 15:20:41;;;;;;;;;;;;;;;;;;12981436;19;20011;-67
2023/04/11 15:24:59;;;;;;;8.75;5.13;;;;;;;;;;12979178;19;19915;-67
2023/04/11 15:29:17;;;;;;;10.32;4.88;;;;;;;;;;12978662;19;20018;-68
2023/04/11 15:33:36;;;;;;;16.92;7.30;;;;;;;;;;12978951;19;20010;-68
2023/04/11 15:37:53;;;;;;;10.18;6.03;;;;;;;;;;12978363;19;20484;-67
2023/04/11 15:42:11;;;;;;;11.65;6.63;;;;;;;;;;12977341;19;20011;-68
2023/04/11 15:46:29;;;;;;;13.10;7.95;;;;;;;;;;12980896;19;20038;-67
2023/04/11 15:50:47;;;;;;;7.88;5.38;;;;;;;;;;12990549;19;20473;-66
2023/04/11 15:55:05;;;;;;;10.95;4.60;;;;;;;;;;12990041;19;20010;-66
2023/04/11 15:59:24;;;;;;;8.00;5.18;;;;;;;;;;12990175;19;20023;-66
2023/04/11 16:03:42;;;;;;;9.02;6.18;;;;;;;;;;12989852;19;20010;-66
2023/04/11 16:08:01;;;;;;;13.25;8.27;;;;;;;;;;12990046;19;20021;-66
2023/04/11 16:12:18;;;;;;;9.80;6.53;;;;;;;;;;12989085;19;20481;-66
2023/04/11 16:16:36;;;;;;;19.70;12.00;;;;;;;;;;12989184;19;20371;-66
2023/04/11 16:20:54;;;;;;;;;;;;;;;;;;12989178;19;20018;-67
2023/04/11 16:25:14;;;;;;;25.10;13.25;;;;;;;;;;12987384;19;20342;-67
2023/04/11 16:29:32;;;;;;;21.92;12.27;;;;;;;;;;12988676;19;20006;-66
2023/04/11 16:33:52;;;;;;;21.45;11.60;;;;;;;;;;12988333;19;20465;-70
2023/04/11 16:38:10;;;;;;;18.63;10.40;;;;;;;;;;12987409;19;20326;-70
2023/04/11 16:42:28;;;;;;;;;;;;;;;;;;12988460;19;20427;-70
2023/04/11 16:46:46;;;;;;;9.73;5.70;;;;;;;;;;12986414;19;19978;-69
2023/04/11 16:51:04;;;;;;;9.40;5.93;;;;;;;;;;12986962;19;20025;-69
2023/04/11 16:55:23;;;;;;;13.07;6.90;;;;;;;;;;12987783;19;20111;-69
2023/04/11 16:59:41;;;;;;;10.40;4.93;;;;;;;;;;12985496;19;20019;-68
2023/04/11 17:03:59;;;;;;;9.10;5.10;;;;;;;;;;12986684;19;20018;-69
2023/04/11 17:08:18;;;;;;;12.63;5.00;;;;;;;;;;12986681;19;20017;-70
2023/04/11 17:12:36;;;;;;;9.00;5.13;;;;;;;;;;12987154;19;20391;-69
2023/04/11 17:16:54;;;;;;;8.20;4.00;;;;;;;;;;12986068;19;20015;-70
2023/04/11 17:21:12;;;;;;;8.65;5.45;;;;;;;;;;12985219;19;20022;-69
2023/04/11 17:25:30;;;;;;;7.85;4.35;;;;;;;;;;12982405;19;20014;-69
2023/04/11 17:29:48;;;;;;;9.88;4.35;;;;;;;;;;12985104;19;20040;-69
2023/04/11 17:34:06;;;;;;;14.23;7.03;;;;;;;;;;12984161;19;20018;-69
2023/04/11 17:38:24;;;;;;;14.35;6.45;;;;;;;;;;12985794;19;20030;-69
2023/04/11 17:42:42;;;;;;;7.35;4.40;;;;;;;;;;12984953;19;20027;-69
2023/04/11 17:47:00;;;;;;;;;;;;;;;;;;12984831;19;20026;-69
2023/04/11 17:51:18;;;;;;;7.97;4.15;;;;;;;;;;12984167;19;19919;-69
2023/04/11 17:55:36;;;;;;;6.32;3.83;;;;;;;;;;12983535;19;20290;-69
2023/04/11 17:59:55;;;;;;;4.45;2.15;;;;;;;;;;12984171;19;20010;-71
2023/04/11 18:04:13;;;;;;;5.20;2.63;;;;;;;;;;12982341;19;20021;-70
2023/04/11 18:08:32;;;;;;;6.72;3.08;;;;;;;;;;12982476;19;20018;-71
2023/04/11 18:13:06;;;;;;;2.47;1.63;;;;;;;;;;12982361;19;20022;-70
2023/04/11 18:17:24;;;;;;;;;;;;;;;;;;12981887;19;20042;-69
2023/04/11 18:21:42;;;;;;;2.85;1.52;;;;;;;;;;12983057;19;20262;-69
2023/04/11 18:26:00;;;;;;;3.50;1.83;;;;;;;;;;12982808;19;20337;-69
2023/04/11 18:30:18;;;;;;;4.18;2.30;;;;;;;;;;12982464;19;20019;-69
2023/04/11 18:34:36;;;;;;;5.25;2.28;;;;;;;;;;12982827;19;20010;-68
2023/04/11 18:38:53;;;;;;;2.72;1.80;;;;;;;;;;12981689;19;20014;-68
2023/04/11 18:43:12;;;;;;;3.13;1.73;;;;;;;;;;12980958;19;20547;-69
2023/04/11 18:47:31;;;;;;;3.33;1.70;;;;;;;;;;12980320;19;20007;-68
2023/04/11 18:51:51;;;;;;;;;;;;;;;;;;12981966;19;20014;-69
2023/04/11 18:56:09;;;;;;;5.32;3.03;;;;;;;;;;12978516;19;19925;-69
2023/04/11 19:00:28;;;;;;;;;;;;;;;;;;12981222;19;20460;-68
2023/04/11 19:04:46;;;;;;;3.75;2.38;;;;;;;;;;12979946;19;20251;-68
2023/04/11 19:09:06;;;;;;;4.95;1.90;;;;;;;;;;12979560;19;20017;-68
2023/04/11 19:13:24;;;;;;;5.90;2.42;;;;;;;;;;12979986;19;20015;-68
2023/04/11 19:17:43;;;;;;;11.40;4.25;;;;;;;;;;12978758;19;20014;-68
2023/04/11 19:22:01;;;;;;;5.97;2.60;;;;;;;;;;12985834;19;20017;-68
2023/04/11 19:26:20;;;;;;;7.43;3.65;;;;;;;;;;12990437;19;20022;-68
2023/04/11 19:30:38;;;;;;;4.90;3.17;;;;;;;;;;12992000;19;20353;-68
2023/04/11 19:34:55;;;;;;;12.55;5.22;;;;;;;;;;12991356;19;20007;-68
2023/04/11 19:39:13;;;;;;;11.23;5.60;;;;;;;;;;12990180;19;20161;-68
2023/04/11 19:43:31;;;;;;;44.63;16.77;;;;;;;;;;12990750;19;20010;-68
2023/04/11 19:47:49;;;;;;;20.58;11.60;;;;;;;;;;12989874;19;20014;-68
2023/04/11 19:52:07;;;;;;;8.75;4.28;;;;;;;;;;12989657;19;20607;-68
2023/04/11 19:56:25;;;;;;;4.38;1.67;;;;;;;;;;12989250;19;20003;-67
2023/04/11 20:00:43;;;;;;;9.95;2.60;;;;;;;;;;12989928;19;20021;-67
2023/04/11 20:05:01;;;;;;;5.88;2.85;;;;;;;;;;12989535;19;20010;-70
2023/04/11 20:09:19;;;;;;;4.45;2.33;;;;;;;;;;12990137;19;20053;-67
2023/04/11 20:13:36;;;;;;;4.05;2.72;;;;;;;;;;12990586;19;20465;-67
2023/04/11 20:17:54;;;;;;;5.93;2.28;;;;;;;;;;12990374;19;20018;-67
2023/04/11 20:22:17;;;;;;;8.82;3.75;;;;;;;;;;12989341;19;20010;-66
2023/04/11 20:26:34;;;;;;;12.32;6.50;;;;;;;;;;12988445;19;20282;-68
2023/04/11 20:30:53;;;;;;;13.20;6.00;;;;;;;;;;12989446;19;20018;-68
2023/04/11 20:35:11;;;;;;;16.80;7.97;;;;;;;;;;12988161;19;20010;-68
2023/04/11 20:39:31;;;;;;;11.02;5.68;;;;;;;;;;12988450;19;20021;-68
2023/04/11 20:43:50;;;;;;;11.77;5.60;;;;;;;;;;12988088;19;20015;-67
2023/04/11 20:48:11;;;;;;;10.15;5.55;;;;;;;;;;12985795;19;20015;-67
2023/04/11 20:52:31;;;;;;;9.48;5.13;;;;;;;;;;12987461;19;20015;-66
2023/04/11 20:56:51;;;;;;;7.50;4.38;;;;;;;;;;12987082;19;20007;-67
2023/04/11 21:01:08;;;;;;;6.25;3.95;;;;;;;;;;12985826;19;20014;-66
2023/04/11 21:05:26;;;;;;;7.55;3.80;;;;;;;;;;12985672;19;20034;-66
2023/04/11 21:09:46;;;;;;;8.35;4.05;;;;;;;;;;12987399;19;20014;-66
2023/04/11 21:14:04;;;;;;;8.55;3.95;;;;;;;;;;12986196;19;20025;-66
2023/04/11 21:18:21;;;;;;;6.38;3.40;;;;;;;;;;12986787;19;20026;-67
2023/04/11 21:22:39;;;;;;;9.77;4.72;;;;;;;;;;12986186;19;20011;-67
2023/04/11 21:26:58;;;;;;;9.07;4.50;;;;;;;;;;12984699;19;20014;-67
2023/04/11 21:31:16;;;;;;;7.88;2.95;;;;;;;;;;12985315;19;20014;-66
2023/04/11 21:35:33;;;;;;;3.35;2.50;;;;;;;;;;12985306;19;20461;-66
2023/04/11 21:39:54;;;;;;;3.38;2.35;;;;;;;;;;12985128;19;20021;-66
2023/04/11 21:44:12;;;;;;;5.68;2.80;;;;;;;;;;12982178;19;20018;-67
2023/04/11 21:48:30;;;;;;;5.30;3.33;;;;;;;;;;12983916;19;20014;-67
2023/04/11 21:52:47;;;;;;;3.95;2.45;;;;;;;;;;12982313;19;20010;-67
2023/04/11 21:57:05;;;;;;;5.13;3.33;;;;;;;;;;12983639;19;20023;-67
2023/04/11 22:01:23;;;;;;;6.65;3.47;;;;;;;;;;12983869;19;20010;-67
2023/04/11 22:05:41;;;;;;;4.70;3.03;;;;;;;;;;12983932;19;20017;-67
2023/04/11 22:10:08;;;;;;;5.22;3.05;;;;;;;;;;12984313;19;20015;-68
2023/04/11 22:14:28;;;;;;;4.85;2.70;;;;;;;;;;12983066;19;20014;-67
2023/04/11 22:18:45;;;;;;;5.88;3.55;;;;;;;;;;12982787;19;20022;-67
2023/04/11 22:23:05;;;;;;;5.88;3.47;;;;;;;;;;12981244;19;20042;-68
2023/04/11 22:27:25;;;;;;;6.22;3.42;;;;;;;;;;12981678;19;20010;-67
2023/04/11 22:31:43;;;;;;;7.03;3.22;;;;;;;;;;12982700;19;20040;-67
2023/04/11 22:36:01;;;;;;;8.05;3.72;;;;;;;;;;12981096;19;20013;-67
2023/04/11 22:40:21;;;;;;;4.93;3.75;;;;;;;;;;12981953;19;20097;-67
2023/04/11 22:44:38;;;;;;;6.05;3.85;;;;;;;;;;12980258;19;20013;-67
2023/04/11 22:48:59;;;;;;;7.30;3.80;;;;;;;;;;12980588;19;20022;-67
2023/04/11 22:53:17;;;;;;;12.52;4.18;;;;;;;;;;12979263;19;20036;-67
2023/04/11 22:57:35;;;;;;;;;;;;;;;;;;12989330;19;20027;-66
2023/04/11 23:01:53;;;;;;;;;;;;;;;;;;12994648;19;19915;-67
2023/04/11 23:06:10;;;;;;;6.85;4.45;;;;;;;;;;12991886;19;20240;-66
2023/04/11 23:10:29;;;;;;;7.85;4.07;;;;;;;;;;12991934;19;20357;-67
2023/04/11 23:14:49;;;;;;;9.35;4.50;;;;;;;;;;12992679;19;20018;-66
2023/04/11 23:19:07;;;;;;;7.18;4.40;;;;;;;;;;12991602;19;20021;-66
2023/04/11 23:23:25;;;;;;;;;;;;;;;;;;12992404;19;20018;-66
2023/04/11 23:27:43;;;;;;;7.97;5.30;;;;;;;;;;12991396;19;20214;-66
2023/04/11 23:32:01;;;;;;;8.60;4.57;;;;;;;;;;12991099;19;20464;-67
2023/04/11 23:36:19;;;;;;;7.47;4.70;;;;;;;;;;12991545;19;20015;-67
2023/04/11 23:40:37;;;;;;;;;;;;;;;;;;12992466;19;20340;-67
2023/04/11 23:44:55;;;;;;;7.03;3.83;;;;;;;;;;12991279;19;19918;-66
2023/04/11 23:49:12;;;;;;;6.25;3.90;;;;;;;;;;12991006;19;20444;-66
2023/04/11 23:53:30;;;;;;;7.30;5.05;;;;;;;;;;12990966;19;20007;-66
2023/04/11 23:57:48;;;;;;;11.95;5.57;;;;;;;;;;12989842;19;20025;-66
